sensor_id;sensor_type;location;lat;lon;timestamp;P1;durP1;ratioP1;P2;durP2;ratioP2
4839;SDS011;2434;48.486;7.964;2022-12-18T00:00:07;90.53;;;33.97;;
4839;SDS011;2434;48.486;7.964;2022-12-18T00:02:44;78.67;;;29.20;;
4839;SDS011;2434;48.486;7.964;2022-12-18T00:05:13;86.03;;;33.60;;
4839;SDS011;2434;48.486;7.964;2022-12-18T00:07:41;67.22;;;29.65;;
4839;SDS011;2434;48.486;7.964;2022-12-18T00:10:09;82.07;;;30.42;;
4839;SDS011;2434;48.486;7.964;2022-12-18T00:12:42;80.75;;;32.15;;
4839;SDS011;2434;48.486;7.964;2022-12-18T00:15:10;74.45;;;28.75;;
4839;SDS011;2434;48.486;7.964;2022-12-18T00:17:38;74.05;;;30.83;;
4839;SDS011;2434;48.486;7.964;2022-12-18T00:20:07;80.07;;;29.52;;
4839;SDS011;2434;48.486;7.964;2022-12-18T00:22:36;72.73;;;30.47;;
4839;SDS011;2434;48.486;7.964;2022-12-18T00:25:04;77.95;;;31.60;;
4839;SDS011;2434;48.486;7.964;2022-12-18T00:27:33;75.57;;;27.83;;
4839;SDS011;2434;48.486;7.964;2022-12-18T00:30:03;60.92;;;27.65;;
4839;SDS011;2434;48.486;7.964;2022-12-18T00:32:32;72.80;;;27.25;;
4839;SDS011;2434;48.486;7.964;2022-12-18T00:35:01;76.40;;;30.52;;
4839;SDS011;2434;48.486;7.964;2022-12-18T00:37:30;68.47;;;29.70;;
4839;SDS011;2434;48.486;7.964;2022-12-18T00:39:58;67.80;;;26.65;;
4839;SDS011;2434;48.486;7.964;2022-12-18T00:42:27;68.38;;;25.17;;
4839;SDS011;2434;48.486;7.964;2022-12-18T00:45:14;61.35;;;26.63;;
4839;SDS011;2434;48.486;7.964;2022-12-18T00:47:43;68.10;;;25.55;;
4839;SDS011;2434;48.486;7.964;2022-12-18T00:50:11;55.42;;;26.08;;
4839;SDS011;2434;48.486;7.964;2022-12-18T00:52:40;67.95;;;26.27;;
4839;SDS011;2434;48.486;7.964;2022-12-18T00:55:09;56.50;;;25.70;;
4839;SDS011;2434;48.486;7.964;2022-12-18T00:57:37;62.00;;;25.40;;
4839;SDS011;2434;48.486;7.964;2022-12-18T01:00:07;72.97;;;26.90;;
4839;SDS011;2434;48.486;7.964;2022-12-18T01:02:39;63.75;;;26.20;;
4839;SDS011;2434;48.486;7.964;2022-12-18T01:05:09;55.97;;;23.90;;
4839;SDS011;2434;48.486;7.964;2022-12-18T01:07:38;69.13;;;26.23;;
4839;SDS011;2434;48.486;7.964;2022-12-18T01:10:07;64.13;;;24.23;;
4839;SDS011;2434;48.486;7.964;2022-12-18T01:12:38;53.58;;;24.55;;
4839;SDS011;2434;48.486;7.964;2022-12-18T01:15:07;53.60;;;23.52;;
4839;SDS011;2434;48.486;7.964;2022-12-18T01:17:38;59.25;;;25.45;;
4839;SDS011;2434;48.486;7.964;2022-12-18T01:20:07;61.40;;;23.53;;
4839;SDS011;2434;48.486;7.964;2022-12-18T01:22:37;59.88;;;24.77;;
4839;SDS011;2434;48.486;7.964;2022-12-18T01:25:06;54.45;;;25.73;;
4839;SDS011;2434;48.486;7.964;2022-12-18T01:27:35;56.95;;;21.90;;
4839;SDS011;2434;48.486;7.964;2022-12-18T01:30:03;51.40;;;23.77;;
4839;SDS011;2434;48.486;7.964;2022-12-18T01:32:33;58.13;;;21.92;;
4839;SDS011;2434;48.486;7.964;2022-12-18T01:35:02;59.65;;;24.48;;
4839;SDS011;2434;48.486;7.964;2022-12-18T01:37:31;48.70;;;22.95;;
4839;SDS011;2434;48.486;7.964;2022-12-18T01:40:00;53.45;;;23.73;;
4839;SDS011;2434;48.486;7.964;2022-12-18T01:42:28;46.50;;;22.73;;
4839;SDS011;2434;48.486;7.964;2022-12-18T01:44:58;46.88;;;22.00;;
4839;SDS011;2434;48.486;7.964;2022-12-18T01:47:38;43.45;;;21.80;;
4839;SDS011;2434;48.486;7.964;2022-12-18T01:50:13;53.63;;;22.80;;
4839;SDS011;2434;48.486;7.964;2022-12-18T01:52:44;60.88;;;24.90;;
4839;SDS011;2434;48.486;7.964;2022-12-18T01:55:16;60.72;;;23.98;;
4839;SDS011;2434;48.486;7.964;2022-12-18T01:57:47;55.42;;;24.35;;
4839;SDS011;2434;48.486;7.964;2022-12-18T02:00:18;60.35;;;25.08;;
4839;SDS011;2434;48.486;7.964;2022-12-18T02:02:50;59.70;;;23.13;;
4839;SDS011;2434;48.486;7.964;2022-12-18T02:05:22;57.08;;;24.67;;
4839;SDS011;2434;48.486;7.964;2022-12-18T02:08:07;60.03;;;24.25;;
4839;SDS011;2434;48.486;7.964;2022-12-18T02:10:41;60.55;;;24.05;;
4839;SDS011;2434;48.486;7.964;2022-12-18T02:13:15;61.05;;;24.85;;
4839;SDS011;2434;48.486;7.964;2022-12-18T02:15:51;51.08;;;23.98;;
4839;SDS011;2434;48.486;7.964;2022-12-18T02:18:27;59.83;;;24.63;;
4839;SDS011;2434;48.486;7.964;2022-12-18T02:21:03;50.47;;;22.00;;
4839;SDS011;2434;48.486;7.964;2022-12-18T02:23:42;62.00;;;26.05;;
4839;SDS011;2434;48.486;7.964;2022-12-18T02:26:21;60.42;;;25.08;;
4839;SDS011;2434;48.486;7.964;2022-12-18T02:28:55;55.70;;;25.05;;
4839;SDS011;2434;48.486;7.964;2022-12-18T02:31:31;57.05;;;24.55;;
4839;SDS011;2434;48.486;7.964;2022-12-18T02:34:06;65.10;;;25.60;;
4839;SDS011;2434;48.486;7.964;2022-12-18T02:36:38;69.53;;;26.37;;
4839;SDS011;2434;48.486;7.964;2022-12-18T02:39:10;59.47;;;27.13;;
4839;SDS011;2434;48.486;7.964;2022-12-18T02:41:50;65.28;;;25.33;;
4839;SDS011;2434;48.486;7.964;2022-12-18T02:44:21;67.85;;;26.52;;
4839;SDS011;2434;48.486;7.964;2022-12-18T02:46:50;62.15;;;25.05;;
4839;SDS011;2434;48.486;7.964;2022-12-18T02:49:23;64.53;;;25.08;;
4839;SDS011;2434;48.486;7.964;2022-12-18T02:52:01;60.83;;;25.00;;
4839;SDS011;2434;48.486;7.964;2022-12-18T02:54:41;56.20;;;24.90;;
4839;SDS011;2434;48.486;7.964;2022-12-18T02:57:22;68.53;;;25.57;;
4839;SDS011;2434;48.486;7.964;2022-12-18T03:00:02;60.22;;;25.25;;
4839;SDS011;2434;48.486;7.964;2022-12-18T03:02:38;60.78;;;24.17;;
4839;SDS011;2434;48.486;7.964;2022-12-18T03:05:13;60.73;;;25.03;;
4839;SDS011;2434;48.486;7.964;2022-12-18T03:07:46;61.63;;;24.52;;
4839;SDS011;2434;48.486;7.964;2022-12-18T03:10:20;55.33;;;23.92;;
4839;SDS011;2434;48.486;7.964;2022-12-18T03:12:56;57.25;;;25.33;;
4839;SDS011;2434;48.486;7.964;2022-12-18T03:15:31;63.58;;;24.08;;
4839;SDS011;2434;48.486;7.964;2022-12-18T03:18:08;51.13;;;21.97;;
4839;SDS011;2434;48.486;7.964;2022-12-18T03:20:41;61.85;;;23.50;;
4839;SDS011;2434;48.486;7.964;2022-12-18T03:23:15;51.35;;;24.40;;
4839;SDS011;2434;48.486;7.964;2022-12-18T03:25:52;69.70;;;25.17;;
4839;SDS011;2434;48.486;7.964;2022-12-18T03:28:30;60.97;;;26.33;;
4839;SDS011;2434;48.486;7.964;2022-12-18T03:31:04;64.57;;;23.77;;
4839;SDS011;2434;48.486;7.964;2022-12-18T03:33:36;60.88;;;24.35;;
4839;SDS011;2434;48.486;7.964;2022-12-18T03:36:09;61.38;;;24.05;;
4839;SDS011;2434;48.486;7.964;2022-12-18T03:38:38;60.15;;;24.05;;
4839;SDS011;2434;48.486;7.964;2022-12-18T03:41:10;59.92;;;25.10;;
4839;SDS011;2434;48.486;7.964;2022-12-18T03:44:08;57.63;;;22.65;;
4839;SDS011;2434;48.486;7.964;2022-12-18T03:46:45;57.38;;;21.67;;
4839;SDS011;2434;48.486;7.964;2022-12-18T03:49:23;62.17;;;25.30;;
4839;SDS011;2434;48.486;7.964;2022-12-18T03:51:57;53.60;;;23.08;;
4839;SDS011;2434;48.486;7.964;2022-12-18T03:54:29;55.80;;;23.03;;
4839;SDS011;2434;48.486;7.964;2022-12-18T03:57:09;59.88;;;23.45;;
4839;SDS011;2434;48.486;7.964;2022-12-18T03:59:43;56.90;;;23.30;;
4839;SDS011;2434;48.486;7.964;2022-12-18T04:02:16;53.72;;;21.88;;
4839;SDS011;2434;48.486;7.964;2022-12-18T04:04:46;53.67;;;23.13;;
4839;SDS011;2434;48.486;7.964;2022-12-18T04:07:18;53.27;;;23.97;;
4839;SDS011;2434;48.486;7.964;2022-12-18T04:09:47;52.03;;;22.27;;
4839;SDS011;2434;48.486;7.964;2022-12-18T04:12:18;57.67;;;23.00;;
4839;SDS011;2434;48.486;7.964;2022-12-18T04:14:48;46.63;;;21.60;;
4839;SDS011;2434;48.486;7.964;2022-12-18T04:17:17;56.17;;;23.25;;
4839;SDS011;2434;48.486;7.964;2022-12-18T04:19:45;49.97;;;20.40;;
4839;SDS011;2434;48.486;7.964;2022-12-18T04:22:14;62.45;;;24.55;;
4839;SDS011;2434;48.486;7.964;2022-12-18T04:24:46;48.43;;;22.03;;
4839;SDS011;2434;48.486;7.964;2022-12-18T04:27:23;56.60;;;22.85;;
4839;SDS011;2434;48.486;7.964;2022-12-18T04:29:53;54.10;;;21.88;;
4839;SDS011;2434;48.486;7.964;2022-12-18T04:32:21;63.50;;;23.70;;
4839;SDS011;2434;48.486;7.964;2022-12-18T04:34:50;49.70;;;22.08;;
4839;SDS011;2434;48.486;7.964;2022-12-18T04:37:18;55.55;;;22.65;;
4839;SDS011;2434;48.486;7.964;2022-12-18T04:39:48;56.42;;;21.95;;
4839;SDS011;2434;48.486;7.964;2022-12-18T04:42:24;50.30;;;21.90;;
4839;SDS011;2434;48.486;7.964;2022-12-18T04:44:54;47.60;;;21.48;;
4839;SDS011;2434;48.486;7.964;2022-12-18T04:47:22;57.15;;;21.73;;
4839;SDS011;2434;48.486;7.964;2022-12-18T04:49:50;43.17;;;19.88;;
4839;SDS011;2434;48.486;7.964;2022-12-18T04:52:18;46.63;;;20.63;;
4839;SDS011;2434;48.486;7.964;2022-12-18T04:54:49;47.30;;;20.98;;
4839;SDS011;2434;48.486;7.964;2022-12-18T04:57:17;44.40;;;22.42;;
4839;SDS011;2434;48.486;7.964;2022-12-18T04:59:46;48.00;;;21.35;;
4839;SDS011;2434;48.486;7.964;2022-12-18T05:02:15;48.38;;;20.95;;
4839;SDS011;2434;48.486;7.964;2022-12-18T05:04:44;52.83;;;21.60;;
4839;SDS011;2434;48.486;7.964;2022-12-18T05:07:12;57.42;;;21.80;;
4839;SDS011;2434;48.486;7.964;2022-12-18T05:09:41;49.78;;;21.50;;
4839;SDS011;2434;48.486;7.964;2022-12-18T05:12:09;48.10;;;22.30;;
4839;SDS011;2434;48.486;7.964;2022-12-18T05:14:37;58.22;;;22.80;;
4839;SDS011;2434;48.486;7.964;2022-12-18T05:17:05;64.55;;;23.25;;
4839;SDS011;2434;48.486;7.964;2022-12-18T05:19:37;45.53;;;22.10;;
4839;SDS011;2434;48.486;7.964;2022-12-18T05:22:09;50.50;;;20.70;;
4839;SDS011;2434;48.486;7.964;2022-12-18T05:24:37;48.65;;;20.63;;
4839;SDS011;2434;48.486;7.964;2022-12-18T05:27:05;58.95;;;23.10;;
4839;SDS011;2434;48.486;7.964;2022-12-18T05:29:33;55.78;;;20.52;;
4839;SDS011;2434;48.486;7.964;2022-12-18T05:32:02;50.42;;;23.15;;
4839;SDS011;2434;48.486;7.964;2022-12-18T05:34:30;51.67;;;21.45;;
4839;SDS011;2434;48.486;7.964;2022-12-18T05:37:01;50.72;;;22.45;;
4839;SDS011;2434;48.486;7.964;2022-12-18T05:39:29;53.63;;;22.08;;
4839;SDS011;2434;48.486;7.964;2022-12-18T05:41:57;50.15;;;23.38;;
4839;SDS011;2434;48.486;7.964;2022-12-18T05:44:26;47.58;;;20.85;;
4839;SDS011;2434;48.486;7.964;2022-12-18T05:46:54;48.60;;;21.98;;
4839;SDS011;2434;48.486;7.964;2022-12-18T05:49:22;49.42;;;21.25;;
4839;SDS011;2434;48.486;7.964;2022-12-18T05:51:50;53.60;;;22.30;;
4839;SDS011;2434;48.486;7.964;2022-12-18T05:54:20;57.58;;;20.13;;
4839;SDS011;2434;48.486;7.964;2022-12-18T05:56:49;54.90;;;21.73;;
4839;SDS011;2434;48.486;7.964;2022-12-18T05:59:17;49.05;;;21.60;;
4839;SDS011;2434;48.486;7.964;2022-12-18T06:01:45;52.90;;;23.75;;
4839;SDS011;2434;48.486;7.964;2022-12-18T06:04:14;56.95;;;21.70;;
4839;SDS011;2434;48.486;7.964;2022-12-18T06:06:42;51.38;;;21.02;;
4839;SDS011;2434;48.486;7.964;2022-12-18T06:09:10;58.33;;;21.63;;
4839;SDS011;2434;48.486;7.964;2022-12-18T06:11:40;47.40;;;21.63;;
4839;SDS011;2434;48.486;7.964;2022-12-18T06:14:08;48.50;;;21.00;;
4839;SDS011;2434;48.486;7.964;2022-12-18T06:16:37;49.33;;;23.00;;
4839;SDS011;2434;48.486;7.964;2022-12-18T06:19:05;55.08;;;22.73;;
4839;SDS011;2434;48.486;7.964;2022-12-18T06:21:33;53.78;;;21.83;;
4839;SDS011;2434;48.486;7.964;2022-12-18T06:24:01;51.08;;;21.02;;
4839;SDS011;2434;48.486;7.964;2022-12-18T06:26:30;64.95;;;24.52;;
4839;SDS011;2434;48.486;7.964;2022-12-18T06:28:59;45.45;;;21.38;;
4839;SDS011;2434;48.486;7.964;2022-12-18T06:31:27;53.50;;;23.55;;
4839;SDS011;2434;48.486;7.964;2022-12-18T06:33:56;50.70;;;21.40;;
4839;SDS011;2434;48.486;7.964;2022-12-18T06:36:24;44.80;;;20.70;;
4839;SDS011;2434;48.486;7.964;2022-12-18T06:38:55;45.65;;;20.92;;
4839;SDS011;2434;48.486;7.964;2022-12-18T06:41:24;50.65;;;20.35;;
4839;SDS011;2434;48.486;7.964;2022-12-18T06:43:53;46.85;;;19.80;;
4839;SDS011;2434;48.486;7.964;2022-12-18T06:46:26;49.50;;;19.90;;
4839;SDS011;2434;48.486;7.964;2022-12-18T06:48:54;46.60;;;20.33;;
4839;SDS011;2434;48.486;7.964;2022-12-18T06:51:23;56.47;;;21.95;;
4839;SDS011;2434;48.486;7.964;2022-12-18T06:53:52;54.63;;;20.17;;
4839;SDS011;2434;48.486;7.964;2022-12-18T06:56:20;47.53;;;19.90;;
4839;SDS011;2434;48.486;7.964;2022-12-18T06:58:51;52.42;;;20.42;;
4839;SDS011;2434;48.486;7.964;2022-12-18T07:01:19;47.63;;;21.20;;
4839;SDS011;2434;48.486;7.964;2022-12-18T07:03:52;50.97;;;18.60;;
4839;SDS011;2434;48.486;7.964;2022-12-18T07:06:21;48.05;;;19.30;;
4839;SDS011;2434;48.486;7.964;2022-12-18T07:08:51;46.17;;;21.23;;
4839;SDS011;2434;48.486;7.964;2022-12-18T07:11:21;49.90;;;20.83;;
4839;SDS011;2434;48.486;7.964;2022-12-18T07:13:49;46.42;;;19.70;;
4839;SDS011;2434;48.486;7.964;2022-12-18T07:16:18;46.10;;;21.70;;
4839;SDS011;2434;48.486;7.964;2022-12-18T07:18:52;48.20;;;19.52;;
4839;SDS011;2434;48.486;7.964;2022-12-18T07:21:23;55.40;;;21.67;;
4839;SDS011;2434;48.486;7.964;2022-12-18T07:23:51;44.20;;;21.08;;
4839;SDS011;2434;48.486;7.964;2022-12-18T07:26:20;41.20;;;19.35;;
4839;SDS011;2434;48.486;7.964;2022-12-18T07:28:49;52.58;;;19.38;;
4839;SDS011;2434;48.486;7.964;2022-12-18T07:31:19;54.42;;;21.63;;
4839;SDS011;2434;48.486;7.964;2022-12-18T07:33:49;44.45;;;20.38;;
4839;SDS011;2434;48.486;7.964;2022-12-18T07:36:27;43.92;;;18.52;;
4839;SDS011;2434;48.486;7.964;2022-12-18T07:38:55;50.50;;;21.90;;
4839;SDS011;2434;48.486;7.964;2022-12-18T07:41:23;46.13;;;18.35;;
4839;SDS011;2434;48.486;7.964;2022-12-18T07:43:52;60.78;;;23.63;;
4839;SDS011;2434;48.486;7.964;2022-12-18T07:46:20;51.88;;;21.23;;
4839;SDS011;2434;48.486;7.964;2022-12-18T07:48:48;50.05;;;20.27;;
4839;SDS011;2434;48.486;7.964;2022-12-18T07:51:16;51.58;;;21.48;;
4839;SDS011;2434;48.486;7.964;2022-12-18T07:53:46;52.35;;;23.58;;
4839;SDS011;2434;48.486;7.964;2022-12-18T07:56:18;55.95;;;20.70;;
4839;SDS011;2434;48.486;7.964;2022-12-18T07:58:54;51.33;;;23.45;;
4839;SDS011;2434;48.486;7.964;2022-12-18T08:01:23;89.05;;;28.42;;
4839;SDS011;2434;48.486;7.964;2022-12-18T08:03:51;64.47;;;25.02;;
4839;SDS011;2434;48.486;7.964;2022-12-18T08:06:20;49.58;;;20.15;;
4839;SDS011;2434;48.486;7.964;2022-12-18T08:08:51;38.17;;;18.30;;
4839;SDS011;2434;48.486;7.964;2022-12-18T08:11:21;47.83;;;20.40;;
4839;SDS011;2434;48.486;7.964;2022-12-18T08:13:50;46.63;;;23.15;;
4839;SDS011;2434;48.486;7.964;2022-12-18T08:16:18;48.95;;;20.35;;
4839;SDS011;2434;48.486;7.964;2022-12-18T08:18:47;44.50;;;19.40;;
4839;SDS011;2434;48.486;7.964;2022-12-18T08:21:16;64.28;;;28.85;;
4839;SDS011;2434;48.486;7.964;2022-12-18T08:23:47;90.88;;;34.05;;
4839;SDS011;2434;48.486;7.964;2022-12-18T08:26:18;68.70;;;27.65;;
4839;SDS011;2434;48.486;7.964;2022-12-18T08:28:47;52.50;;;22.63;;
4839;SDS011;2434;48.486;7.964;2022-12-18T08:31:17;49.90;;;22.15;;
4839;SDS011;2434;48.486;7.964;2022-12-18T08:33:47;52.10;;;23.38;;
4839;SDS011;2434;48.486;7.964;2022-12-18T08:36:16;48.53;;;21.13;;
4839;SDS011;2434;48.486;7.964;2022-12-18T08:38:44;54.33;;;21.50;;
4839;SDS011;2434;48.486;7.964;2022-12-18T08:41:13;52.70;;;23.63;;
4839;SDS011;2434;48.486;7.964;2022-12-18T08:43:44;51.83;;;23.65;;
4839;SDS011;2434;48.486;7.964;2022-12-18T08:46:34;55.65;;;26.17;;
4839;SDS011;2434;48.486;7.964;2022-12-18T08:49:04;56.30;;;24.50;;
4839;SDS011;2434;48.486;7.964;2022-12-18T08:51:33;52.17;;;21.25;;
4839;SDS011;2434;48.486;7.964;2022-12-18T08:54:02;62.97;;;25.50;;
4839;SDS011;2434;48.486;7.964;2022-12-18T08:56:32;62.45;;;25.50;;
4839;SDS011;2434;48.486;7.964;2022-12-18T08:59:01;55.97;;;22.80;;
4839;SDS011;2434;48.486;7.964;2022-12-18T09:01:30;56.00;;;24.85;;
4839;SDS011;2434;48.486;7.964;2022-12-18T09:04:00;57.90;;;26.45;;
4839;SDS011;2434;48.486;7.964;2022-12-18T09:06:29;67.07;;;26.25;;
4839;SDS011;2434;48.486;7.964;2022-12-18T09:08:58;66.03;;;27.08;;
4839;SDS011;2434;48.486;7.964;2022-12-18T09:11:27;52.67;;;24.48;;
4839;SDS011;2434;48.486;7.964;2022-12-18T09:13:56;60.92;;;26.38;;
4839;SDS011;2434;48.486;7.964;2022-12-18T09:16:28;58.75;;;24.75;;
4839;SDS011;2434;48.486;7.964;2022-12-18T09:18:58;55.08;;;25.45;;
4839;SDS011;2434;48.486;7.964;2022-12-18T09:21:28;59.78;;;26.50;;
4839;SDS011;2434;48.486;7.964;2022-12-18T09:24:03;63.05;;;25.17;;
4839;SDS011;2434;48.486;7.964;2022-12-18T09:26:34;73.68;;;27.70;;
4839;SDS011;2434;48.486;7.964;2022-12-18T09:29:03;65.45;;;25.88;;
4839;SDS011;2434;48.486;7.964;2022-12-18T09:31:35;64.43;;;27.27;;
4839;SDS011;2434;48.486;7.964;2022-12-18T09:34:04;65.53;;;27.63;;
4839;SDS011;2434;48.486;7.964;2022-12-18T09:36:32;69.03;;;26.63;;
4839;SDS011;2434;48.486;7.964;2022-12-18T09:39:01;75.88;;;28.92;;
4839;SDS011;2434;48.486;7.964;2022-12-18T09:41:44;57.22;;;25.30;;
4839;SDS011;2434;48.486;7.964;2022-12-18T09:44:20;55.40;;;26.15;;
4839;SDS011;2434;48.486;7.964;2022-12-18T09:46:54;63.97;;;25.35;;
4839;SDS011;2434;48.486;7.964;2022-12-18T09:49:42;52.55;;;25.50;;
4839;SDS011;2434;48.486;7.964;2022-12-18T09:52:14;60.17;;;26.25;;
4839;SDS011;2434;48.486;7.964;2022-12-18T09:54:48;72.22;;;27.95;;
4839;SDS011;2434;48.486;7.964;2022-12-18T09:57:20;65.03;;;28.65;;
4839;SDS011;2434;48.486;7.964;2022-12-18T09:59:52;63.55;;;25.95;;
4839;SDS011;2434;48.486;7.964;2022-12-18T10:02:24;61.20;;;27.13;;
4839;SDS011;2434;48.486;7.964;2022-12-18T10:05:02;68.22;;;26.42;;
4839;SDS011;2434;48.486;7.964;2022-12-18T10:07:34;74.15;;;27.73;;
4839;SDS011;2434;48.486;7.964;2022-12-18T10:10:14;67.00;;;27.55;;
4839;SDS011;2434;48.486;7.964;2022-12-18T10:12:53;74.63;;;26.52;;
4839;SDS011;2434;48.486;7.964;2022-12-18T10:15:31;66.22;;;27.88;;
4839;SDS011;2434;48.486;7.964;2022-12-18T10:18:10;60.80;;;26.17;;
4839;SDS011;2434;48.486;7.964;2022-12-18T10:20:50;54.95;;;24.92;;
4839;SDS011;2434;48.486;7.964;2022-12-18T10:23:21;55.50;;;24.23;;
4839;SDS011;2434;48.486;7.964;2022-12-18T10:25:57;65.00;;;25.23;;
4839;SDS011;2434;48.486;7.964;2022-12-18T10:28:30;60.00;;;22.23;;
4839;SDS011;2434;48.486;7.964;2022-12-18T10:31:04;49.25;;;22.17;;
4839;SDS011;2434;48.486;7.964;2022-12-18T10:33:35;48.15;;;21.23;;
4839;SDS011;2434;48.486;7.964;2022-12-18T10:36:03;59.15;;;22.40;;
4839;SDS011;2434;48.486;7.964;2022-12-18T10:38:32;55.83;;;24.98;;
4839;SDS011;2434;48.486;7.964;2022-12-18T10:41:02;50.20;;;22.92;;
4839;SDS011;2434;48.486;7.964;2022-12-18T10:43:32;66.07;;;26.90;;
4839;SDS011;2434;48.486;7.964;2022-12-18T10:46:11;66.30;;;24.50;;
4839;SDS011;2434;48.486;7.964;2022-12-18T10:48:52;68.30;;;25.40;;
4839;SDS011;2434;48.486;7.964;2022-12-18T10:51:22;62.65;;;26.77;;
4839;SDS011;2434;48.486;7.964;2022-12-18T10:53:53;62.10;;;25.38;;
4839;SDS011;2434;48.486;7.964;2022-12-18T10:56:24;73.85;;;28.45;;
4839;SDS011;2434;48.486;7.964;2022-12-18T10:58:56;62.10;;;25.95;;
4839;SDS011;2434;48.486;7.964;2022-12-18T11:01:26;55.72;;;25.67;;
4839;SDS011;2434;48.486;7.964;2022-12-18T11:04:07;64.18;;;28.02;;
4839;SDS011;2434;48.486;7.964;2022-12-18T11:06:36;64.93;;;25.35;;
4839;SDS011;2434;48.486;7.964;2022-12-18T11:09:21;55.22;;;26.98;;
4839;SDS011;2434;48.486;7.964;2022-12-18T11:11:51;64.03;;;25.67;;
4839;SDS011;2434;48.486;7.964;2022-12-18T11:14:21;63.47;;;27.20;;
4839;SDS011;2434;48.486;7.964;2022-12-18T11:16:51;82.07;;;30.58;;
4839;SDS011;2434;48.486;7.964;2022-12-18T11:19:43;62.17;;;25.30;;
4839;SDS011;2434;48.486;7.964;2022-12-18T11:22:18;63.10;;;25.27;;
4839;SDS011;2434;48.486;7.964;2022-12-18T11:24:52;59.92;;;26.70;;
4839;SDS011;2434;48.486;7.964;2022-12-18T11:27:47;66.50;;;28.58;;
4839;SDS011;2434;48.486;7.964;2022-12-18T11:30:20;73.68;;;26.65;;
4839;SDS011;2434;48.486;7.964;2022-12-18T11:32:51;65.35;;;27.58;;
4839;SDS011;2434;48.486;7.964;2022-12-18T11:35:32;75.70;;;29.95;;
4839;SDS011;2434;48.486;7.964;2022-12-18T11:38:06;68.93;;;27.67;;
4839;SDS011;2434;48.486;7.964;2022-12-18T11:40:43;83.07;;;30.80;;
4839;SDS011;2434;48.486;7.964;2022-12-18T11:43:15;73.20;;;29.73;;
4839;SDS011;2434;48.486;7.964;2022-12-18T11:45:49;87.93;;;29.23;;
4839;SDS011;2434;48.486;7.964;2022-12-18T11:48:21;84.70;;;28.83;;
4839;SDS011;2434;48.486;7.964;2022-12-18T11:50:53;71.07;;;27.95;;
4839;SDS011;2434;48.486;7.964;2022-12-18T11:53:23;83.93;;;33.83;;
4839;SDS011;2434;48.486;7.964;2022-12-18T11:55:56;93.45;;;31.95;;
4839;SDS011;2434;48.486;7.964;2022-12-18T12:04:32;81.25;;;32.30;;
4839;SDS011;2434;48.486;7.964;2022-12-18T12:07:33;79.57;;;31.25;;
4839;SDS011;2434;48.486;7.964;2022-12-18T12:10:14;105.20;;;38.15;;
4839;SDS011;2434;48.486;7.964;2022-12-18T12:12:54;96.88;;;34.10;;
4839;SDS011;2434;48.486;7.964;2022-12-18T12:15:33;101.72;;;33.90;;
4839;SDS011;2434;48.486;7.964;2022-12-18T12:18:14;86.45;;;31.90;;
4839;SDS011;2434;48.486;7.964;2022-12-18T12:20:49;97.38;;;35.15;;
4839;SDS011;2434;48.486;7.964;2022-12-18T12:23:28;85.10;;;33.22;;
4839;SDS011;2434;48.486;7.964;2022-12-18T12:26:07;88.20;;;32.75;;
4839;SDS011;2434;48.486;7.964;2022-12-18T12:28:54;89.78;;;35.55;;
4839;SDS011;2434;48.486;7.964;2022-12-18T12:31:32;90.15;;;36.38;;
4839;SDS011;2434;48.486;7.964;2022-12-18T12:34:13;109.43;;;34.95;;
4839;SDS011;2434;48.486;7.964;2022-12-18T12:36:51;104.93;;;36.55;;
4839;SDS011;2434;48.486;7.964;2022-12-18T12:39:36;146.57;;;46.55;;
4839;SDS011;2434;48.486;7.964;2022-12-18T12:42:11;128.95;;;44.03;;
4839;SDS011;2434;48.486;7.964;2022-12-18T12:45:02;110.43;;;41.00;;
4839;SDS011;2434;48.486;7.964;2022-12-18T12:47:35;100.00;;;36.13;;
4839;SDS011;2434;48.486;7.964;2022-12-18T12:50:12;87.25;;;38.35;;
4839;SDS011;2434;48.486;7.964;2022-12-18T12:52:44;116.32;;;42.22;;
4839;SDS011;2434;48.486;7.964;2022-12-18T12:55:18;99.57;;;38.70;;
4839;SDS011;2434;48.486;7.964;2022-12-18T12:57:54;99.03;;;35.55;;
4839;SDS011;2434;48.486;7.964;2022-12-18T13:00:27;98.65;;;38.90;;
4839;SDS011;2434;48.486;7.964;2022-12-18T13:03:06;118.78;;;39.05;;
4839;SDS011;2434;48.486;7.964;2022-12-18T13:05:40;87.80;;;35.13;;
4839;SDS011;2434;48.486;7.964;2022-12-18T13:08:21;114.45;;;41.72;;
4839;SDS011;2434;48.486;7.964;2022-12-18T13:10:53;100.45;;;39.28;;
4839;SDS011;2434;48.486;7.964;2022-12-18T13:13:48;100.82;;;38.20;;
4839;SDS011;2434;48.486;7.964;2022-12-18T13:16:18;78.88;;;33.25;;
4839;SDS011;2434;48.486;7.964;2022-12-18T13:18:50;100.43;;;37.65;;
4839;SDS011;2434;48.486;7.964;2022-12-18T13:21:21;104.35;;;38.10;;
4839;SDS011;2434;48.486;7.964;2022-12-18T13:23:53;101.53;;;38.30;;
4839;SDS011;2434;48.486;7.964;2022-12-18T13:26:31;100.00;;;38.85;;
4839;SDS011;2434;48.486;7.964;2022-12-18T13:29:00;106.35;;;43.70;;
4839;SDS011;2434;48.486;7.964;2022-12-18T13:34:47;97.97;;;36.03;;
4839;SDS011;2434;48.486;7.964;2022-12-18T13:43:26;96.75;;;37.13;;
4839;SDS011;2434;48.486;7.964;2022-12-18T13:46:17;86.82;;;34.60;;
4839;SDS011;2434;48.486;7.964;2022-12-18T13:48:52;87.88;;;33.55;;
4839;SDS011;2434;48.486;7.964;2022-12-18T13:51:23;82.43;;;33.20;;
4839;SDS011;2434;48.486;7.964;2022-12-18T13:53:53;84.57;;;37.20;;
4839;SDS011;2434;48.486;7.964;2022-12-18T13:56:25;100.70;;;35.25;;
4839;SDS011;2434;48.486;7.964;2022-12-18T13:59:09;89.63;;;36.80;;
4839;SDS011;2434;48.486;7.964;2022-12-18T14:01:48;98.75;;;38.08;;
4839;SDS011;2434;48.486;7.964;2022-12-18T14:04:21;85.28;;;34.15;;
4839;SDS011;2434;48.486;7.964;2022-12-18T14:06:52;84.20;;;33.03;;
4839;SDS011;2434;48.486;7.964;2022-12-18T14:09:25;86.03;;;34.92;;
4839;SDS011;2434;48.486;7.964;2022-12-18T14:11:57;69.97;;;31.15;;
4839;SDS011;2434;48.486;7.964;2022-12-18T14:14:46;70.90;;;31.33;;
4839;SDS011;2434;48.486;7.964;2022-12-18T14:17:20;80.45;;;34.15;;
4839;SDS011;2434;48.486;7.964;2022-12-18T14:19:50;73.50;;;33.88;;
4839;SDS011;2434;48.486;7.964;2022-12-18T14:22:19;86.65;;;34.58;;
4839;SDS011;2434;48.486;7.964;2022-12-18T14:25:04;89.55;;;35.45;;
4839;SDS011;2434;48.486;7.964;2022-12-18T14:27:42;80.10;;;34.08;;
4839;SDS011;2434;48.486;7.964;2022-12-18T14:33:01;84.18;;;35.42;;
4839;SDS011;2434;48.486;7.964;2022-12-18T14:35:31;88.97;;;36.58;;
4839;SDS011;2434;48.486;7.964;2022-12-18T14:40:56;85.93;;;35.33;;
4839;SDS011;2434;48.486;7.964;2022-12-18T14:43:27;102.10;;;39.75;;
4839;SDS011;2434;48.486;7.964;2022-12-18T14:45:58;95.63;;;36.88;;
4839;SDS011;2434;48.486;7.964;2022-12-18T14:48:33;90.97;;;38.45;;
4839;SDS011;2434;48.486;7.964;2022-12-18T14:51:05;87.93;;;35.95;;
4839;SDS011;2434;48.486;7.964;2022-12-18T14:53:35;93.70;;;38.10;;
4839;SDS011;2434;48.486;7.964;2022-12-18T14:56:13;92.15;;;36.03;;
4839;SDS011;2434;48.486;7.964;2022-12-18T14:58:47;89.75;;;38.22;;
4839;SDS011;2434;48.486;7.964;2022-12-18T15:01:19;86.72;;;36.53;;
4839;SDS011;2434;48.486;7.964;2022-12-18T15:03:51;86.05;;;34.63;;
4839;SDS011;2434;48.486;7.964;2022-12-18T15:06:28;77.47;;;34.17;;
4839;SDS011;2434;48.486;7.964;2022-12-18T15:08:58;84.72;;;37.28;;
4839;SDS011;2434;48.486;7.964;2022-12-18T15:11:28;95.00;;;36.38;;
4839;SDS011;2434;48.486;7.964;2022-12-18T15:16:53;75.53;;;31.90;;
4839;SDS011;2434;48.486;7.964;2022-12-18T15:19:24;77.63;;;34.25;;
4839;SDS011;2434;48.486;7.964;2022-12-18T15:21:59;74.55;;;33.35;;
4839;SDS011;2434;48.486;7.964;2022-12-18T15:24:32;80.03;;;32.92;;
4839;SDS011;2434;48.486;7.964;2022-12-18T15:27:01;76.45;;;33.65;;
4839;SDS011;2434;48.486;7.964;2022-12-18T15:29:29;80.63;;;35.22;;
4839;SDS011;2434;48.486;7.964;2022-12-18T15:32:00;70.75;;;33.13;;
4839;SDS011;2434;48.486;7.964;2022-12-18T15:34:30;72.55;;;31.85;;
4839;SDS011;2434;48.486;7.964;2022-12-18T15:37:00;70.45;;;32.08;;
4839;SDS011;2434;48.486;7.964;2022-12-18T15:39:28;73.18;;;32.28;;
4839;SDS011;2434;48.486;7.964;2022-12-18T15:41:57;72.93;;;32.38;;